Time;durP1;ratioP1;P1;durP2;ratioP2;P2;SDS_P1;SDS_P2;PMS_P1;PMS_P2;Temp;Humidity;BMP_temperature;BMP_pressure;BME280_temperature;BME280_humidity;BME280_pressure;Samples;Min_cycle;Max_cycle;Signal;HPM_P1;HPM_P2
2021/03/09 00:01:07;;;;;;;12.83;9.00;;;7.50;45.60;;;;;;5070139;28;20262;-41
2021/03/09 00:03:33;;;;;;;12.70;9.17;;;7.50;45.60;;;;;;5070316;28;20892;-42
2021/03/09 00:05:59;;;;;;;13.67;8.90;;;7.40;45.70;;;;;;5064052;28;20265;-42
2021/03/09 00:08:24;;;;;;;12.37;9.53;;;7.40;45.80;;;;;;5057918;28;20196;-41
2021/03/09 00:10:50;;;;;;;15.20;10.03;;;7.30;45.90;;;;;;5066057;28;20503;-41
2021/03/09 00:13:16;;;;;;;9.80;8.73;;;7.20;46.00;;;;;;5071879;28;20199;-42
2021/03/09 00:15:41;;;;;;;10.87;8.70;;;7.20;46.00;;;;;;5071683;28;20258;-41
2021/03/09 00:18:10;;;;;;;15.40;8.97;;;7.20;46.20;;;;;;5073722;28;20502;-41
2021/03/09 00:20:36;;;;;;;12.03;9.53;;;7.20;46.20;;;;;;5080361;28;20269;-42
2021/03/09 00:23:01;;;;;;;11.23;8.93;;;7.10;46.20;;;;;;5074934;28;20426;-41
2021/03/09 00:25:27;;;;;;;11.20;7.83;;;7.10;46.40;;;;;;5072751;28;20592;-42
2021/03/09 00:27:53;;;;;;;11.43;8.33;;;7.10;46.60;;;;;;5072298;28;20188;-41
2021/03/09 00:30:19;;;;;;;16.23;9.63;;;7.10;46.60;;;;;;5072024;28;20683;-41
2021/03/09 00:32:45;;;;;;;13.90;8.27;;;7.00;46.60;;;;;;5050530;28;20196;-41
2021/03/09 00:35:11;;;;;;;14.07;8.97;;;7.00;46.70;;;;;;5073873;28;20430;-41
2021/03/09 00:37:37;;;;;;;10.53;8.53;;;6.90;46.60;;;;;;5075531;28;20195;-42
2021/03/09 00:40:03;;;;;;;12.30;8.60;;;6.90;46.90;;;;;;5072856;28;20584;-41
2021/03/09 00:42:28;;;;;;;11.00;8.80;;;6.80;46.80;;;;;;5061821;28;20216;-42
2021/03/09 00:44:54;;;;;;;14.50;8.80;;;6.90;47.10;;;;;;5072578;28;20441;-42
2021/03/09 00:47:19;;;;;;;11.33;8.43;;;6.90;47.20;;;;;;5071805;28;20199;-42
2021/03/09 00:49:45;;;;;;;10.90;8.07;;;6.80;47.10;;;;;;5055814;28;20193;-41
2021/03/09 00:52:11;;;;;;;12.97;8.27;;;6.80;47.20;;;;;;5065961;28;20270;-42
2021/03/09 00:54:36;;;;;;;15.17;8.63;;;6.80;47.20;;;;;;5068206;28;20199;-41
2021/03/09 00:57:02;;;;;;;14.47;8.83;;;6.80;47.10;;;;;;5071599;28;20321;-42
2021/03/09 00:59:27;;;;;;;12.60;7.70;;;6.80;46.90;;;;;;5072278;28;20200;-42
2021/03/09 01:01:53;;;;;;;11.53;8.67;;;6.80;46.90;;;;;;5073669;28;20231;-42
2021/03/09 01:04:18;;;;;;;13.47;8.53;;;6.70;47.10;;;;;;5072536;28;20195;-41
2021/03/09 01:06:44;;;;;;;11.80;8.90;;;6.60;47.10;;;;;;5072659;28;20192;-42
2021/03/09 01:09:10;;;;;;;9.50;7.90;;;6.60;47.30;;;;;;5072050;28;20188;-42
2021/03/09 01:11:36;;;;;;;11.50;8.40;;;6.60;47.40;;;;;;5080622;28;20432;-41
2021/03/09 01:14:01;;;;;;;13.23;8.20;;;6.60;47.50;;;;;;5070399;28;20677;-43
2021/03/09 01:16:27;;;;;;;11.03;8.47;;;6.60;47.50;;;;;;5065919;28;20204;-42
2021/03/09 01:18:52;;;;;;;10.67;8.30;;;6.70;47.50;;;;;;5073873;28;20215;-42
2021/03/09 01:21:18;;;;;;;11.40;8.50;;;6.60;47.40;;;;;;5068883;28;20223;-42
2021/03/09 01:23:43;;;;;;;11.33;7.97;;;6.60;47.40;;;;;;5072385;28;20184;-41
2021/03/09 01:26:09;;;;;;;12.07;8.70;;;6.50;47.30;;;;;;5072212;28;20615;-41
2021/03/09 01:28:35;;;;;;;10.00;8.33;;;6.50;47.30;;;;;;5072907;28;20196;-42
2021/03/09 01:31:00;;;;;;;13.53;8.37;;;6.50;47.60;;;;;;5071480;28;20239;-42
2021/03/09 01:33:26;;;;;;;9.67;7.50;;;6.50;47.70;;;;;;5073036;28;20647;-42
2021/03/09 01:35:52;;;;;;;10.67;8.07;;;6.40;47.60;;;;;;5072660;28;20761;-41
2021/03/09 01:38:17;;;;;;;12.50;7.80;;;6.40;47.80;;;;;;5072957;28;20221;-41
2021/03/09 01:40:43;;;;;;;15.30;8.37;;;6.30;47.90;;;;;;5071515;28;20216;-41
2021/03/09 01:43:08;;;;;;;9.93;7.53;;;6.40;47.90;;;;;;5071811;28;20603;-41
2021/03/09 01:45:34;;;;;;;10.63;7.10;;;6.40;47.80;;;;;;5075879;28;20192;-41
2021/03/09 01:48:03;;;;;;;13.60;8.70;;;6.30;47.70;;;;;;5072349;28;20561;-42
2021/03/09 01:50:32;;;;;;;10.20;7.17;;;6.30;47.90;;;;;;5072361;28;20180;-41
2021/03/09 01:53:01;;;;;;;18.83;8.40;;;6.20;48.00;;;;;;5072272;28;20961;-41
2021/03/09 01:55:26;;;;;;;13.30;7.83;;;6.50;48.40;;;;;;5064410;28;20497;-41
2021/03/09 01:57:53;;;;;;;13.27;7.40;;;6.10;48.30;;;;;;5072509;28;20443;-42
2021/03/09 02:00:19;;;;;;;10.50;7.80;;;6.10;48.40;;;;;;5061919;28;20210;-42
2021/03/09 02:02:44;;;;;;;10.27;7.47;;;6.20;48.40;;;;;;5071199;28;20439;-41
2021/03/09 02:05:12;;;;;;;11.33;7.90;;;6.20;48.30;;;;;;5071440;28;20956;-41
2021/03/09 02:07:38;;;;;;;9.57;7.13;;;6.20;48.10;;;;;;5071920;28;20715;-41
2021/03/09 02:10:08;;;;;;;10.77;8.00;;;6.20;48.00;;;;;;5065070;28;20587;-41
2021/03/09 02:13:01;;;;;;;13.63;7.70;;;6.10;48.10;;;;;;5070987;28;20246;-41
2021/03/09 02:15:58;;;;;;;12.63;7.03;;;6.10;48.20;;;;;;5068618;28;20447;-41
2021/03/09 02:19:09;;;;;;;12.03;7.80;;;5.90;49.30;;;;;;5079838;28;20429;-41
2021/03/09 02:22:13;;;;;;;9.93;7.10;;;5.80;49.50;;;;;;5068782;28;20497;-41
2021/03/09 02:25:20;;;;;;;12.97;8.40;;;5.80;49.50;;;;;;5070454;28;20491;-42
2021/03/09 02:28:18;;;;;;;15.40;8.87;;;5.90;49.40;;;;;;5071275;28;20434;-41
2021/03/09 02:30:45;;;;;;;10.67;7.83;;;6.00;49.20;;;;;;5065689;28;20508;-41
2021/03/09 02:33:17;;;;;;;14.03;9.03;;;5.90;49.30;;;;;;5071778;28;20507;-42
2021/03/09 02:35:57;;;;;;;10.87;8.57;;;5.90;49.40;;;;;;5068368;28;20438;-42
2021/03/09 02:38:24;;;;;;;12.80;7.93;;;5.90;49.40;;;;;;5064984;28;20439;-42
2021/03/09 02:40:54;;;;;;;13.40;9.03;;;5.90;49.30;;;;;;5065328;28;20503;-41
2021/03/09 02:43:21;;;;;;;12.23;8.70;;;5.90;49.50;;;;;;5070500;28;20465;-42
2021/03/09 02:45:49;;;;;;;10.30;7.53;;;5.90;49.40;;;;;;5071410;28;20426;-42
2021/03/09 02:48:15;;;;;;;12.80;9.00;;;5.80;49.50;;;;;;5065002;28;20442;-41
2021/03/09 02:50:42;;;;;;;10.47;8.23;;;5.70;49.70;;;;;;5068524;28;20484;-42
2021/03/09 02:53:13;;;;;;;12.33;9.50;;;5.60;49.90;;;;;;5065505;28;20524;-42
2021/03/09 02:55:41;;;;;;;12.20;8.10;;;5.70;50.10;;;;;;5068566;28;20438;-41
2021/03/09 02:58:09;;;;;;;10.83;8.03;;;5.70;50.00;;;;;;5065392;28;20441;-42
2021/03/09 03:00:37;;;;;;;14.57;8.80;;;5.80;49.60;;;;;;5062547;28;20981;-41
2021/03/09 03:03:07;;;;;;;12.60;8.27;;;5.90;49.40;;;;;;5065860;28;20441;-42
2021/03/09 03:05:35;;;;;;;11.07;8.33;;;5.80;49.40;;;;;;5068269;28;20482;-42
2021/03/09 03:08:05;;;;;;;8.30;7.03;;;5.80;49.30;;;;;;5070844;28;20801;-42
2021/03/09 03:10:32;;;;;;;11.13;8.47;;;5.80;49.20;;;;;;5065166;28;20469;-41
2021/03/09 03:13:00;;;;;;;11.90;8.40;;;5.90;49.00;;;;;;5072094;28;20434;-42
2021/03/09 03:15:27;;;;;;;11.23;8.13;;;5.90;48.90;;;;;;5066634;28;20530;-42
2021/03/09 03:17:54;;;;;;;10.63;8.53;;;5.80;48.80;;;;;;5069143;28;20522;-41
2021/03/09 03:20:21;;;;;;;10.30;8.43;;;5.90;48.90;;;;;;5070666;28;20941;-41
2021/03/09 03:22:51;;;;;;;10.20;8.37;;;5.80;48.90;;;;;;5071355;28;20837;-41
2021/03/09 03:25:18;;;;;;;8.33;7.50;;;5.80;48.80;;;;;;5065604;28;20441;-41
2021/03/09 03:27:47;;;;;;;14.03;8.50;;;5.80;48.70;;;;;;5062233;28;20434;-41
2021/03/09 03:30:14;;;;;;;10.00;7.50;;;5.80;48.60;;;;;;5069711;28;20857;-41
2021/03/09 03:32:40;;;;;;;10.77;8.20;;;5.70;48.60;;;;;;5064895;28;20949;-41
2021/03/09 03:35:08;;;;;;;10.87;8.00;;;5.70;48.70;;;;;;5066035;28;20435;-42
2021/03/09 03:37:38;;;;;;;12.13;8.63;;;5.60;49.10;;;;;;5065563;28;20196;-42
2021/03/09 03:40:10;;;;;;;12.50;8.13;;;5.60;49.20;;;;;;5069249;28;20473;-41
2021/03/09 03:42:38;;;;;;;9.57;8.03;;;5.60;49.10;;;;;;5070331;28;20988;-42
2021/03/09 03:45:04;;;;;;;11.17;8.27;;;5.60;49.10;;;;;;5069823;28;20437;-41
2021/03/09 03:47:30;;;;;;;9.87;7.70;;;5.60;49.30;;;;;;5063463;28;20529;-42
2021/03/09 03:49:56;;;;;;;10.83;7.50;;;5.60;49.30;;;;;;5063188;28;20530;-41
2021/03/09 03:52:46;;;;;;;9.87;7.13;;;5.60;49.10;;;;;;5057629;28;20271;-41
2021/03/09 03:55:33;;;;;;;10.70;7.57;;;5.60;48.80;;;;;;5062040;28;20534;-41
2021/03/09 03:58:08;;;;;;;9.70;7.30;;;5.50;48.90;;;;;;5070617;28;20442;-42
2021/03/09 04:00:34;;;;;;;12.83;7.40;;;5.50;49.00;;;;;;5067256;28;20448;-41
2021/03/09 04:03:00;;;;;;;12.17;8.20;;;5.50;49.10;;;;;;5068193;28;20434;-41
2021/03/09 04:05:27;;;;;;;11.00;8.47;;;5.50;49.00;;;;;;5069407;28;20426;-41
2021/03/09 04:07:54;;;;;;;9.20;7.50;;;5.40;49.20;;;;;;5069921;28;20555;-42
2021/03/09 04:10:20;;;;;;;11.73;8.57;;;5.40;49.00;;;;;;5068258;28;20470;-41
2021/03/09 04:12:46;;;;;;;12.67;8.13;;;5.40;49.00;;;;;;5069403;28;20437;-41
2021/03/09 04:15:13;;;;;;;9.40;7.87;;;5.40;49.30;;;;;;5070331;28;20442;-42
2021/03/09 04:17:40;;;;;;;11.70;7.90;;;5.30;49.40;;;;;;5069627;28;20717;-42
2021/03/09 04:20:08;;;;;;;11.03;8.23;;;5.30;49.80;;;;;;5067544;28;20476;-42
2021/03/09 04:22:34;;;;;;;21.10;8.87;;;5.20;49.90;;;;;;5066766;28;21186;-41
2021/03/09 04:25:00;;;;;;;12.33;7.90;;;5.20;49.80;;;;;;5068259;28;20529;-42
2021/03/09 04:27:27;;;;;;;10.10;6.70;;;5.20;50.00;;;;;;5066686;28;20508;-41
2021/03/09 04:29:57;;;;;;;9.87;8.00;;;5.30;50.10;;;;;;5068857;28;20808;-41
2021/03/09 04:32:25;;;;;;;14.00;8.30;;;5.30;50.10;;;;;;5069110;28;20442;-41
2021/03/09 04:34:51;;;;;;;10.00;8.33;;;5.30;50.10;;;;;;5068888;28;20442;-42
2021/03/09 04:37:17;;;;;;;9.93;7.70;;;5.30;50.00;;;;;;5069685;28;20466;-41
2021/03/09 04:39:43;;;;;;;16.23;9.77;;;5.30;49.80;;;;;;5069206;28;20472;-41
2021/03/09 04:42:10;;;;;;;12.97;8.50;;;5.30;49.60;;;;;;5070120;28;20478;-41
2021/03/09 04:44:36;;;;;;;12.63;7.60;;;5.40;49.60;;;;;;5069392;28;20840;-42
2021/03/09 04:47:03;;;;;;;13.80;7.80;;;5.30;49.50;;;;;;5070042;28;20480;-41
2021/03/09 04:49:32;;;;;;;14.10;8.37;;;5.20;49.80;;;;;;5064425;28;20448;-42
2021/03/09 04:51:57;;;;;;;9.30;7.37;;;5.20;49.70;;;;;;5064519;28;20450;-41
2021/03/09 04:54:24;;;;;;;12.93;8.60;;;5.30;49.70;;;;;;5068377;28;20427;-41
2021/03/09 04:56:49;;;;;;;12.00;8.20;;;5.30;49.70;;;;;;5069415;28;20957;-42
2021/03/09 04:59:15;;;;;;;10.10;7.93;;;5.30;49.70;;;;;;5070350;28;20487;-41
2021/03/09 05:01:41;;;;;;;11.80;9.10;;;5.30;49.70;;;;;;5072450;28;20243;-41
2021/03/09 05:04:06;;;;;;;12.10;9.03;;;5.30;49.60;;;;;;5060696;28;20535;-41
2021/03/09 05:06:32;;;;;;;12.40;8.60;;;5.30;49.50;;;;;;5073090;28;20192;-41
2021/03/09 05:08:57;;;;;;;9.90;8.23;;;5.30;49.40;;;;;;5069933;28;20195;-41
2021/03/09 05:11:23;;;;;;;9.33;8.10;;;5.20;49.30;;;;;;5071873;28;20200;-41
2021/03/09 05:13:49;;;;;;;11.70;8.60;;;5.10;49.20;;;;;;5066266;28;20287;-41
2021/03/09 05:16:14;;;;;;;12.70;8.70;;;5.20;49.30;;;;;;5071526;28;20192;-41
2021/03/09 05:18:40;;;;;;;13.93;11.90;;;5.10;49.20;;;;;;5066884;28;20188;-41
2021/03/09 05:21:05;;;;;;;11.10;8.43;;;5.10;49.40;;;;;;5065783;28;20224;-41
2021/03/09 05:23:31;;;;;;;13.17;8.60;;;5.10;49.40;;;;;;5058665;28;20204;-42
2021/03/09 05:25:57;;;;;;;12.90;9.57;;;5.00;50.10;;;;;;5074781;28;20198;-41
2021/03/09 05:28:22;;;;;;;15.60;9.20;;;5.10;49.50;;;;;;5073272;28;20192;-41
2021/03/09 05:30:48;;;;;;;14.87;9.57;;;5.00;49.60;;;;;;5071618;28;20239;-41
2021/03/09 05:33:13;;;;;;;13.07;9.50;;;5.10;49.50;;;;;;5060297;28;20536;-41
2021/03/09 05:35:39;;;;;;;14.63;9.60;;;5.10;49.70;;;;;;5068854;28;20192;-41
2021/03/09 05:38:04;;;;;;;11.83;7.83;;;5.10;50.00;;;;;;5071789;28;20233;-41
2021/03/09 05:40:30;;;;;;;12.10;9.27;;;5.10;50.00;;;;;;5070569;28;20196;-42
2021/03/09 05:42:56;;;;;;;13.87;9.83;;;5.10;49.90;;;;;;5077838;28;20192;-41
2021/03/09 05:45:22;;;;;;;13.03;8.93;;;5.10;49.80;;;;;;5067915;28;20216;-41
2021/03/09 05:47:49;;;;;;;11.60;9.43;;;5.10;49.90;;;;;;5063422;28;20947;-41
2021/03/09 05:50:15;;;;;;;15.73;9.70;;;5.10;49.90;;;;;;5068640;28;20921;-42
2021/03/09 05:52:41;;;;;;;11.30;8.63;;;5.20;49.90;;;;;;5073199;28;20497;-41
2021/03/09 05:55:09;;;;;;;12.57;8.10;;;5.10;49.70;;;;;;5072355;28;20199;-41
2021/03/09 05:57:34;;;;;;;12.97;8.63;;;5.10;49.70;;;;;;5062586;28;20430;-42
2021/03/09 06:00:01;;;;;;;14.60;9.30;;;5.10;49.80;;;;;;5073303;28;20445;-41
2021/03/09 06:02:28;;;;;;;14.93;10.60;;;5.10;49.80;;;;;;5067684;28;20219;-41
2021/03/09 06:04:54;;;;;;;14.53;11.13;;;5.10;49.80;;;;;;5071357;28;20438;-42
2021/03/09 06:07:21;;;;;;;16.97;10.97;;;5.10;50.20;;;;;;5068907;28;20458;-41
2021/03/09 06:09:47;;;;;;;12.70;9.37;;;5.00;50.10;;;;;;5070755;28;20492;-41
2021/03/09 06:12:16;;;;;;;13.97;8.90;;;5.00;50.00;;;;;;5063313;28;20537;-41
2021/03/09 06:14:44;;;;;;;13.80;9.70;;;5.00;50.40;;;;;;5060609;28;20546;-42
2021/03/09 06:17:12;;;;;;;9.97;7.23;;;5.00;50.50;;;;;;5069230;28;20430;-42
2021/03/09 06:19:48;;;;;;;14.00;9.97;;;5.10;50.90;;;;;;5070478;28;20406;-42
2021/03/09 06:22:15;;;;;;;14.13;9.57;;;5.40;52.80;;;;;;5071086;28;20508;-42
2021/03/09 06:24:42;;;;;;;15.17;8.63;;;5.70;52.10;;;;;;5070605;28;20525;-42
2021/03/09 06:27:34;;;;;;;14.20;9.10;;;6.00;51.10;;;;;;5067120;28;20585;-42
2021/03/09 06:30:00;;;;;;;14.60;9.50;;;6.40;50.90;;;;;;5066148;28;20469;-42
2021/03/09 06:32:37;;;;;;;12.87;9.07;;;6.80;49.40;;;;;;5063411;28;20802;-42
2021/03/09 06:35:03;;;;;;;13.57;10.00;;;7.00;47.90;;;;;;5065521;28;20580;-42
2021/03/09 06:37:28;;;;;;;12.40;9.17;;;7.30;47.30;;;;;;5066774;28;20521;-42
2021/03/09 06:39:57;;;;;;;12.23;9.60;;;7.50;46.30;;;;;;5070685;28;20426;-42
2021/03/09 06:42:35;;;;;;;13.97;8.30;;;7.70;46.40;;;;;;5066093;28;20223;-42
2021/03/09 06:45:03;;;;;;;12.87;10.20;;;7.80;46.10;;;;;;5067806;28;20442;-43
2021/03/09 06:47:42;;;;;;;14.50;10.57;;;8.00;46.50;;;;;;5060388;28;20450;-42
2021/03/09 06:50:18;;;;;;;15.53;10.27;;;8.10;45.60;;;;;;5059918;28;20448;-44
2021/03/09 06:52:57;;;;;;;13.90;10.70;;;8.10;45.20;;;;;;5067219;28;20434;-42
2021/03/09 06:55:28;;;;;;;17.63;9.97;;;8.20;45.00;;;;;;5071140;28;20450;-43
2021/03/09 06:58:12;;;;;;;13.03;10.83;;;8.10;45.20;;;;;;5067585;28;20446;-42
2021/03/09 07:00:42;;;;;;;15.50;10.60;;;8.00;45.70;;;;;;5058219;28;20446;-42
2021/03/09 07:03:36;;;;;;;12.80;10.03;;;8.00;45.60;;;;;;5060618;28;20837;-42
2021/03/09 07:06:02;;;;;;;16.13;10.03;;;7.70;45.80;;;;;;5070763;28;20917;-42
2021/03/09 07:08:28;;;;;;;13.17;10.07;;;7.60;46.40;;;;;;5069464;28;20526;-43
2021/03/09 07:10:54;;;;;;;12.33;10.83;;;7.60;46.40;;;;;;5070254;28;20994;-42
2021/03/09 07:13:24;;;;;;;18.10;10.83;;;7.00;47.40;;;;;;5056893;28;20686;-42
2021/03/09 07:15:54;;;;;;;13.60;10.83;;;6.90;48.10;;;;;;5063078;28;20437;-42
2021/03/09 07:18:25;;;;;;;12.60;9.60;;;6.90;48.50;;;;;;5070599;28;20434;-42
2021/03/09 07:20:53;;;;;;;18.37;10.20;;;7.10;48.20;;;;;;5067838;28;20549;-42
2021/03/09 07:23:20;;;;;;;16.63;11.00;;;7.20;47.90;;;;;;5070804;28;20430;-42
2021/03/09 07:26:02;;;;;;;12.97;9.87;;;7.50;47.60;;;;;;5068964;28;20446;-42
2021/03/09 07:28:37;;;;;;;15.63;11.03;;;7.60;47.30;;;;;;5068980;28;20442;-42
2021/03/09 07:31:05;;;;;;;13.27;10.37;;;7.90;46.80;;;;;;5068321;28;20877;-43
2021/03/09 07:33:30;;;;;;;13.30;10.17;;;7.80;46.20;;;;;;5070529;28;20429;-43
2021/03/09 07:35:57;;;;;;;18.40;12.20;;;7.80;47.10;;;;;;5064397;28;20438;-42
2021/03/09 07:38:24;;;;;;;15.10;9.70;;;7.80;47.00;;;;;;5069539;28;20275;-42
2021/03/09 07:40:50;;;;;;;13.07;10.53;;;7.90;46.70;;;;;;5068503;28;20501;-43
2021/03/09 07:43:17;;;;;;;12.87;10.67;;;8.00;46.80;;;;;;5063054;28;20502;-43
2021/03/09 07:45:44;;;;;;;16.73;11.30;;;8.20;46.80;;;;;;5062414;28;20438;-42
2021/03/09 07:48:23;;;;;;;12.83;11.20;;;8.40;46.50;;;;;;5071282;28;20508;-43
2021/03/09 07:50:49;;;;;;;15.83;10.70;;;8.60;45.90;;;;;;5069474;28;20450;-43
2021/03/09 07:53:22;;;;;;;14.47;10.53;;;8.80;45.70;;;;;;5071360;28;20422;-43
2021/03/09 07:56:09;;;;;;;15.53;10.90;;;8.90;45.50;;;;;;5071020;28;20975;-43
2021/03/09 07:58:35;;;;;;;16.00;12.13;;;8.80;45.20;;;;;;5076591;28;20441;-41
2021/03/09 08:01:01;;;;;;;22.83;12.20;;;8.60;45.80;;;;;;5064284;28;20966;-41
2021/03/09 08:03:28;;;;;;;18.77;13.30;;;8.60;46.30;;;;;;5064185;28;20445;-41
2021/03/09 08:05:59;;;;;;;14.77;11.20;;;8.50;46.30;;;;;;5069219;28;20253;-41
2021/03/09 08:08:42;;;;;;;18.77;11.50;;;8.50;46.80;;;;;;5069220;28;20464;-43
2021/03/09 08:11:28;;;;;;;15.67;12.70;;;8.50;46.80;;;;;;5067832;28;20434;-43
2021/03/09 08:14:02;;;;;;;17.40;14.20;;;8.50;46.80;;;;;;5069854;28;20841;-43
2021/03/09 08:16:44;;;;;;;14.70;12.03;;;8.50;46.90;;;;;;5069872;28;20883;-43
2021/03/09 08:19:12;;;;;;;16.57;12.63;;;8.50;47.00;;;;;;5065180;28;20803;-43
2021/03/09 08:21:56;;;;;;;14.50;12.50;;;8.50;47.00;;;;;;5056550;28;20493;-43
2021/03/09 08:24:40;;;;;;;18.97;12.20;;;8.50;47.00;;;;;;5067808;28;20877;-43
2021/03/09 08:27:28;;;;;;;18.53;13.20;;;8.50;46.90;;;;;;5070359;28;20442;-44
2021/03/09 08:29:57;;;;;;;16.03;12.63;;;8.50;46.80;;;;;;5064823;28;20518;-43
2021/03/09 08:32:27;;;;;;;16.50;11.87;;;8.50;47.10;;;;;;5075457;28;20438;-43
2021/03/09 08:35:11;;;;;;;20.43;13.40;;;8.60;47.30;;;;;;5071479;28;20831;-43
2021/03/09 08:37:37;;;;;;;17.50;13.70;;;8.70;47.40;;;;;;5072315;28;20452;-43
2021/03/09 08:40:10;;;;;;;14.87;12.47;;;8.70;47.50;;;;;;5071723;28;20439;-43
2021/03/09 08:43:00;;;;;;;17.30;12.70;;;8.70;47.50;;;;;;5067557;28;20485;-42
2021/03/09 08:45:35;;;;;;;17.97;12.63;;;8.70;47.30;;;;;;5064317;28;20438;-42
2021/03/09 08:48:01;;;;;;;18.33;13.13;;;8.70;47.50;;;;;;5062141;28;20871;-43
2021/03/09 08:50:56;;;;;;;16.40;11.67;;;8.60;47.60;;;;;;5065126;28;20481;-43
2021/03/09 08:53:32;;;;;;;15.17;11.77;;;8.60;47.70;;;;;;5061443;28;20302;-43
2021/03/09 08:56:00;;;;;;;18.10;13.67;;;8.60;47.80;;;;;;5071833;28;20438;-43
2021/03/09 08:58:26;;;;;;;17.73;12.07;;;8.60;48.00;;;;;;5072235;28;20442;-43
2021/03/09 09:00:52;;;;;;;18.17;13.17;;;8.60;48.30;;;;;;5061382;28;20481;-43
2021/03/09 09:03:35;;;;;;;20.03;13.97;;;8.80;48.20;;;;;;5070196;28;20435;-44
2021/03/09 09:06:01;;;;;;;18.80;13.70;;;8.90;48.20;;;;;;5069222;28;20203;-44
2021/03/09 09:08:28;;;;;;;20.87;15.10;;;9.00;48.20;;;;;;5071162;28;20472;-44
2021/03/09 09:10:53;;;;;;;27.87;15.40;;;9.00;48.10;;;;;;5070923;28;20782;-43
2021/03/09 09:13:34;;;;;;;20.70;14.50;;;9.20;48.20;;;;;;5067344;28;20445;-43
2021/03/09 09:16:01;;;;;;;22.77;14.47;;;8.90;48.30;;;;;;5072568;28;20196;-43
2021/03/09 09:18:27;;;;;;;22.00;13.90;;;9.10;48.50;;;;;;5072466;28;20434;-44
2021/03/09 09:20:53;;;;;;;19.37;14.07;;;9.30;48.20;;;;;;5071768;28;20517;-43
2021/03/09 09:23:25;;;;;;;19.67;13.90;;;9.40;47.80;;;;;;5060656;28;20462;-43
2021/03/09 09:26:00;;;;;;;19.03;14.70;;;9.60;48.20;;;;;;5068902;28;20582;-43
2021/03/09 09:28:43;;;;;;;22.27;15.93;;;9.80;47.60;;;;;;5071923;28;20441;-43
2021/03/09 09:31:11;;;;;;;17.80;11.63;;;10.00;46.40;;;;;;5067579;28;20492;-44
2021/03/09 09:33:37;;;;;;;14.30;10.70;;;10.10;48.80;;;;;;5072135;28;20805;-43
2021/03/09 09:36:04;;;;;;;18.30;12.10;;;10.50;48.90;;;;;;5071105;28;20435;-44
2021/03/09 09:38:29;;;;;;;19.93;14.73;;;11.00;46.90;;;;;;5070946;28;20241;-45
2021/03/09 09:40:58;;;;;;;16.80;13.20;;;11.30;46.00;;;;;;5071448;28;20482;-44
2021/03/09 09:43:29;;;;;;;15.60;12.50;;;11.60;44.80;;;;;;5064329;28;20441;-44
2021/03/09 09:46:16;;;;;;;18.77;12.03;;;11.90;44.70;;;;;;5067177;28;20549;-44
2021/03/09 09:48:42;;;;;;;18.67;14.20;;;12.10;44.60;;;;;;5072231;28;20535;-45
2021/03/09 09:51:14;;;;;;;14.40;11.17;;;12.40;44.20;;;;;;5067164;28;21019;-43
2021/03/09 09:53:45;;;;;;;14.17;12.43;;;12.50;42.90;;;;;;5068618;28;21014;-44
2021/03/09 09:56:31;;;;;;;17.90;13.53;;;12.60;43.40;;;;;;5075987;28;20438;-44
2021/03/09 09:59:00;;;;;;;16.63;12.50;;;12.90;43.10;;;;;;5064882;28;20450;-44
2021/03/09 10:01:32;;;;;;;19.60;13.97;;;13.10;41.60;;;;;;5072672;28;20493;-43
2021/03/09 10:04:07;;;;;;;19.80;15.10;;;13.20;40.80;;;;;;5071013;28;20438;-43
2021/03/09 10:06:50;;;;;;;16.00;13.97;;;13.20;40.60;;;;;;5069202;28;20473;-43
2021/03/09 10:09:22;;;;;;;18.77;14.03;;;13.10;40.40;;;;;;5067045;28;20452;-43
2021/03/09 10:11:55;;;;;;;15.53;13.00;;;13.10;40.50;;;;;;5070598;28;20578;-43
2021/03/09 10:14:23;;;;;;;24.43;14.90;;;13.10;40.60;;;;;;5070038;28;20438;-43
2021/03/09 10:16:50;;;;;;;22.13;14.13;;;13.20;40.40;;;;;;5071183;28;20438;-42
2021/03/09 10:19:21;;;;;;;18.70;14.07;;;13.20;40.30;;;;;;5072441;28;20525;-43
2021/03/09 10:21:55;;;;;;;18.87;13.80;;;13.30;40.50;;;;;;5071845;28;20521;-43
2021/03/09 10:24:30;;;;;;;16.93;13.37;;;13.40;40.20;;;;;;5071580;28;20469;-44
2021/03/09 10:26:58;;;;;;;21.00;14.30;;;13.50;39.90;;;;;;5068756;28;20453;-43
2021/03/09 10:29:26;;;;;;;16.93;14.63;;;13.60;39.50;;;;;;5071119;28;20445;-44
2021/03/09 10:31:58;;;;;;;14.60;12.43;;;13.70;39.50;;;;;;5070297;28;20535;-43
2021/03/09 10:34:39;;;;;;;18.50;13.40;;;13.70;39.30;;;;;;5072161;28;20443;-42
2021/03/09 10:37:11;;;;;;;18.47;13.00;;;13.70;39.10;;;;;;5070838;28;20464;-43
2021/03/09 10:39:39;;;;;;;15.27;13.13;;;13.70;38.70;;;;;;5068014;28;20455;-43
2021/03/09 10:42:27;;;;;;;19.90;12.50;;;13.70;39.10;;;;;;5063497;28;20989;-43
2021/03/09 10:44:54;;;;;;;14.87;12.67;;;13.70;38.80;;;;;;5064876;28;20441;-42
2021/03/09 10:47:19;;;;;;;14.37;12.20;;;13.80;38.70;;;;;;5065401;28;20442;-43
2021/03/09 10:49:46;;;;;;;15.03;12.70;;;13.80;38.40;;;;;;5065347;28;20808;-43
2021/03/09 10:52:11;;;;;;;15.30;12.43;;;13.80;37.80;;;;;;5064761;28;20200;-43
2021/03/09 10:54:38;;;;;;;13.27;11.27;;;13.90;37.80;;;;;;5067521;28;20937;-43
2021/03/09 10:57:13;;;;;;;15.90;12.50;;;13.90;37.80;;;;;;5068956;28;20196;-42
2021/03/09 10:59:39;;;;;;;17.07;12.40;;;13.80;37.90;;;;;;5069372;28;20952;-43
2021/03/09 11:02:09;;;;;;;12.40;9.90;;;13.80;38.10;;;;;;5070386;28;20488;-44
2021/03/09 11:04:35;;;;;;;12.67;10.17;;;13.90;37.80;;;;;;5070611;28;20450;-43
2021/03/09 11:07:01;;;;;;;11.77;9.87;;;14.10;37.40;;;;;;5058159;28;20545;-43
2021/03/09 11:09:27;;;;;;;14.53;11.20;;;14.30;37.20;;;;;;5065706;28;20442;-43
2021/03/09 11:11:52;;;;;;;13.70;11.60;;;14.50;36.90;;;;;;5069250;28;20945;-43
2021/03/09 11:14:18;;;;;;;14.60;12.27;;;14.50;36.60;;;;;;5059520;28;20972;-43
2021/03/09 11:16:43;;;;;;;13.53;10.47;;;14.70;36.30;;;;;;5061454;28;20188;-44
2021/03/09 11:19:09;;;;;;;13.17;11.50;;;14.70;35.80;;;;;;5069122;28;20188;-44
2021/03/09 11:21:34;;;;;;;14.87;10.17;;;14.60;35.70;;;;;;5056530;28;20228;-44
2021/03/09 11:24:00;;;;;;;15.20;10.60;;;14.50;36.00;;;;;;5060054;28;20271;-43
2021/03/09 11:26:28;;;;;;;14.70;11.90;;;14.60;35.90;;;;;;5061998;28;20617;-43
2021/03/09 11:28:54;;;;;;;12.63;10.87;;;14.70;35.80;;;;;;5067822;28;20231;-43
2021/03/09 11:31:21;;;;;;;13.93;10.53;;;14.70;36.20;;;;;;5064657;28;20505;-43
2021/03/09 11:33:47;;;;;;;12.37;10.10;;;14.70;36.20;;;;;;5061761;28;20196;-43
2021/03/09 11:36:13;;;;;;;15.40;11.80;;;14.80;36.70;;;;;;5065369;28;20921;-44
2021/03/09 11:38:44;;;;;;;16.73;12.20;;;14.90;36.30;;;;;;5067349;28;20441;-43
2021/03/09 11:41:11;;;;;;;15.00;11.20;;;14.80;35.70;;;;;;5062868;28;20486;-43
2021/03/09 11:43:37;;;;;;;12.83;11.13;;;14.80;35.60;;;;;;5064403;28;20453;-43
2021/03/09 11:46:02;;;;;;;12.82;10.82;;;14.90;35.60;;;;;;5066580;28;20406;-43
2021/03/09 11:48:28;;;;;;;14.53;10.63;;;14.70;36.00;;;;;;5063392;28;20258;-43
2021/03/09 11:50:54;;;;;;;12.57;9.93;;;14.80;35.90;;;;;;5038049;28;20203;-43
2021/03/09 11:53:19;;;;;;;13.80;10.50;;;14.90;35.20;;;;;;5061496;28;20271;-46
2021/03/09 11:55:46;;;;;;;14.60;10.30;;;14.90;34.90;;;;;;5063827;28;20214;-43
2021/03/09 11:58:11;;;;;;;9.70;8.00;;;14.90;34.60;;;;;;5057317;28;20192;-44
2021/03/09 12:00:37;;;;;;;11.80;9.60;;;14.80;33.50;;;;;;5063596;28;20433;-42
2021/03/09 12:03:03;;;;;;;11.50;9.30;;;14.90;33.80;;;;;;5059007;28;20196;-44
2021/03/09 12:05:29;;;;;;;12.20;10.80;;;15.00;34.00;;;;;;5061574;28;20564;-43
2021/03/09 12:07:55;;;;;;;11.20;9.80;;;14.90;35.00;;;;;;5059479;28;20438;-43
2021/03/09 12:10:20;;;;;;;10.13;8.10;;;14.70;34.60;;;;;;5068861;28;20192;-43
2021/03/09 12:12:46;;;;;;;9.77;8.70;;;14.80;33.90;;;;;;5069165;28;20250;-44
2021/03/09 12:15:12;;;;;;;12.03;8.60;;;14.80;34.20;;;;;;5066166;28;20245;-43
2021/03/09 12:17:39;;;;;;;11.87;10.43;;;14.90;34.20;;;;;;5061499;28;20180;-43
2021/03/09 12:20:06;;;;;;;10.33;9.13;;;15.00;34.40;;;;;;5070140;28;20426;-43
2021/03/09 12:22:31;;;;;;;9.03;8.03;;;15.20;34.10;;;;;;5063962;28;20492;-43
2021/03/09 12:24:57;;;;;;;12.97;9.13;;;15.10;32.70;;;;;;5070648;28;20434;-44
2021/03/09 12:27:22;;;;;;;17.23;9.70;;;15.20;32.40;;;;;;5064178;28;20196;-43
2021/03/09 12:29:48;;;;;;;12.93;8.50;;;14.90;32.50;;;;;;5070370;28;20294;-44
2021/03/09 12:32:14;;;;;;;10.57;9.03;;;15.00;33.00;;;;;;5069981;28;20234;-43
2021/03/09 12:34:39;;;;;;;9.90;8.90;;;15.00;33.00;;;;;;5063111;28;20237;-43
2021/03/09 12:37:06;;;;;;;8.27;7.47;;;15.00;33.00;;;;;;5062025;28;20272;-44
2021/03/09 12:39:31;;;;;;;8.37;7.57;;;15.30;32.30;;;;;;5064112;28;20192;-43
2021/03/09 12:41:57;;;;;;;9.40;8.50;;;15.50;32.00;;;;;;5071370;28;20486;-44
2021/03/09 12:44:22;;;;;;;8.30;7.30;;;15.60;32.00;;;;;;5061640;28;20293;-44
2021/03/09 12:46:48;;;;;;;11.20;9.10;;;15.60;31.80;;;;;;5069691;28;20211;-43
2021/03/09 12:49:14;;;;;;;9.30;7.40;;;15.70;32.60;;;;;;5067810;28;20194;-43
2021/03/09 12:51:39;;;;;;;9.57;8.57;;;15.70;32.30;;;;;;5067596;28;20287;-43